Time;durP1;ratioP1;P1;durP2;ratioP2;P2;SDS_P1;SDS_P2;PMS_P1;PMS_P2;Temp;Humidity;BMP_temperature;BMP_pressure;BME280_temperature;BME280_humidity;BME280_pressure;Samples;Min_cycle;Max_cycle;Signal;HPM_P1;HPM_P2
2023/07/31 00:00:37;;;;;;;0.68;0.40;;;;;;;25.76;42.13;99069.75;5110256;28;20033;-82
2023/07/31 00:03:02;;;;;;;2.20;0.17;;;;;;;25.25;41.62;99022.84;5110399;28;20121;-83
2023/07/31 00:05:28;;;;;;;1.98;0.57;;;;;;;25.50;41.91;99066.63;5111154;28;20028;-82
2023/07/31 00:07:54;;;;;;;0.90;0.47;;;;;;;25.19;41.94;99015.28;5111045;28;20050;-82
2023/07/31 00:10:20;;;;;;;1.55;0.70;;;;;;;25.47;42.05;99054.28;5109293;28;20043;-82
2023/07/31 00:12:46;;;;;;;0.35;0.35;;;;;;;25.07;42.78;98992.06;5110709;28;20115;-82
2023/07/31 00:15:13;;;;;;;1.17;0.65;;;;;;;25.43;42.78;99047.44;5109010;28;20031;-83
2023/07/31 00:17:38;;;;;;;0.60;0.50;;;;;;;25.50;43.37;99064.81;5110377;28;20054;-83
2023/07/31 00:20:04;;;;;;;0.52;0.43;;;;;;;25.38;43.32;99055.09;5109254;28;20497;-82
2023/07/31 00:22:29;;;;;;;0.63;0.45;;;;;;;25.37;43.38;99039.88;5110876;28;20465;-82
2023/07/31 00:24:56;;;;;;;0.75;0.35;;;;;;;25.61;42.40;99073.81;5110588;28;20028;-82
2023/07/31 00:27:23;;;;;;;0.70;0.45;;;;;;;25.53;42.16;99080.75;5110366;28;20115;-82
2023/07/31 00:29:48;;;;;;;0.22;0.22;;;;;;;25.37;43.08;99077.66;5110188;28;20046;-81
2023/07/31 00:32:14;;;;;;;0.45;0.45;;;;;;;25.07;44.10;99049.59;5110916;28;20020;-81
2023/07/31 00:34:40;;;;;;;2.35;0.45;;;;;;;25.21;44.67;99067.31;5109784;28;20443;-83
2023/07/31 00:37:06;;;;;;;1.45;0.98;;;;;;;25.33;44.54;99062.69;5110074;28;20358;-83
2023/07/31 00:39:31;;;;;;;0.55;0.55;;;;;;;25.38;44.98;99087.47;5110341;28;20061;-82
2023/07/31 00:41:57;;;;;;;0.45;0.28;;;;;;;25.26;45.39;99073.16;5110680;28;20027;-85
2023/07/31 00:44:22;;;;;;;2.05;0.47;;;;;;;25.02;44.79;99057.22;5106965;28;20032;-82
2023/07/31 00:46:48;;;;;;;0.85;0.77;;;;;;;25.17;44.61;99088.28;5109244;28;20023;-82
2023/07/31 00:49:14;;;;;;;0.98;0.50;;;;;;;25.28;44.76;99102.72;5110493;28;20031;-82
2023/07/31 00:51:39;;;;;;;0.45;0.45;;;;;;;25.17;44.98;99098.22;5100540;28;20032;-82
2023/07/31 00:54:06;;;;;;;1.35;0.93;;;;;;;25.05;44.72;99069.59;5092827;28;20442;-82
2023/07/31 00:56:32;;;;;;;0.55;0.32;;;;;;;25.18;45.31;99111.59;5143205;27;20819;-82
2023/07/31 00:58:58;;;;;;;2.50;1.33;;;;;;;25.15;45.00;99102.91;5110053;28;20508;-85
2023/07/31 01:01:23;;;;;;;1.80;1.17;;;;;;;25.08;44.41;99075.56;5109311;28;20031;-82
2023/07/31 01:03:53;;;;;;;1.30;0.98;;;;;;;24.95;45.11;99083.00;5099502;28;20024;-82
2023/07/31 01:06:40;;;;;;;5.05;0.45;;;;;;;24.84;45.65;99103.66;5104754;28;20032;-83
2023/07/31 01:09:32;;;;;;;1.40;1.20;;;;;;;24.78;45.58;99104.16;5110141;28;20084;-81
2023/07/31 01:12:02;;;;;;;0.55;0.55;;;;;;;24.72;46.22;99099.28;5143485;27;20028;-82
2023/07/31 01:14:28;;;;;;;1.50;1.02;;;;;;;24.89;46.04;99105.97;5109929;28;20027;-82
2023/07/31 01:16:53;;;;;;;0.85;0.30;;;;;;;24.72;46.14;99101.13;5110158;28;20093;-83
2023/07/31 01:19:23;;;;;;;2.10;0.90;;;;;;;24.56;46.00;99102.38;5110089;28;20092;-83
2023/07/31 01:22:25;;;;;;;0.52;0.52;;;;;;;24.75;45.67;99123.28;5110438;28;20461;-82
2023/07/31 01:25:21;;;;;;;0.43;0.40;;;;;;;24.71;45.99;99123.69;5109800;28;20026;-83
2023/07/31 01:28:01;;;;;;;0.25;0.25;;;;;;;24.56;45.73;99096.97;5107670;28;20051;-83
2023/07/31 01:30:35;;;;;;;0.25;0.22;;;;;;;24.56;45.97;99086.19;5110104;28;20523;-84
2023/07/31 01:33:06;;;;;;;0.90;0.52;;;;;;;24.49;46.60;99082.28;5109636;28;20016;-83
2023/07/31 01:35:36;;;;;;;0.40;0.40;;;;;;;24.73;45.85;99113.59;5109992;28;20519;-85
2023/07/31 01:38:02;;;;;;;1.83;0.80;;;;;;;24.71;46.24;99123.69;5108465;28;20028;-85
2023/07/31 01:40:28;;;;;;;1.33;0.80;;;;;;;24.52;46.32;99083.88;5090127;28;20573;-84
2023/07/31 01:42:54;;;;;;;0.52;0.43;;;;;;;24.41;46.77;99077.53;5089187;28;20485;-84
2023/07/31 01:45:19;;;;;;;0.52;0.40;;;;;;;24.17;47.57;99060.66;5104619;28;20055;-83
2023/07/31 01:47:45;;;;;;;0.65;0.43;;;;;;;24.41;47.14;99099.09;5097793;28;20057;-87
2023/07/31 01:50:10;;;;;;;0.45;0.45;;;;;;;24.31;47.52;99099.00;5098301;28;20038;-83
2023/07/31 01:52:36;;;;;;;0.70;0.40;;;;;;;24.09;47.91;99074.75;5099739;28;20055;-82
2023/07/31 01:55:03;;;;;;;0.93;0.32;;;;;;;23.99;48.30;99098.91;5100669;28;20490;-83
2023/07/31 01:57:28;;;;;;;0.38;0.38;;;;;;;23.98;48.78;99069.41;5105577;28;20039;-80
2023/07/31 01:59:54;;;;;;;1.65;0.85;;;;;;;24.07;48.75;99093.75;5108425;28;20382;-81
2023/07/31 02:02:20;;;;;;;0.52;0.47;;;;;;;24.06;48.09;99083.94;5109633;28;20465;-86
2023/07/31 02:04:46;;;;;;;0.98;0.47;;;;;;;24.24;48.45;99103.16;5113265;28;20027;-81
2023/07/31 02:07:11;;;;;;;1.13;0.63;;;;;;;24.02;48.85;99071.72;5113223;28;20474;-84
2023/07/31 02:09:37;;;;;;;0.75;0.50;;;;;;;24.01;48.23;99064.59;5112634;28;20485;-83
2023/07/31 02:12:03;;;;;;;1.10;0.82;;;;;;;24.28;48.36;99091.16;5110536;28;20039;-83
2023/07/31 02:14:28;;;;;;;1.70;0.60;;;;;;;24.27;48.50;99081.34;5112049;28;20034;-82
2023/07/31 02:16:54;;;;;;;1.58;1.10;;;;;;;24.20;48.97;99100.84;5101049;28;20024;-82
2023/07/31 02:19:19;;;;;;;0.88;0.68;;;;;;;24.17;49.59;99118.09;5112538;28;20038;-82
2023/07/31 02:21:45;;;;;;;0.95;0.88;;;;;;;24.06;49.59;99094.72;5112327;28;20031;-82
2023/07/31 02:24:10;;;;;;;0.52;0.52;;;;;;;24.20;49.62;99117.84;5110927;28;20061;-81
2023/07/31 02:26:35;;;;;;;2.80;1.38;;;;;;;24.17;49.94;99112.69;5124899;27;20462;-82
2023/07/31 02:29:01;;;;;;;0.85;0.68;;;;;;;24.00;50.12;99097.06;5106123;28;20031;-81
2023/07/31 02:31:26;;;;;;;1.52;0.90;;;;;;;23.90;50.07;99078.94;5107871;28;20050;-81
2023/07/31 02:33:52;;;;;;;0.93;0.55;;;;;;;24.13;49.69;99112.09;5097643;28;20031;-82
2023/07/31 02:36:17;;;;;;;1.40;0.70;;;;;;;23.99;50.19;99080.03;5097320;28;20024;-82
2023/07/31 02:38:43;;;;;;;1.17;0.65;;;;;;;23.97;50.50;99108.06;5097441;28;20031;-82
2023/07/31 02:41:08;;;;;;;1.73;1.23;;;;;;;23.77;51.04;99103.28;5095855;28;20115;-81
2023/07/31 02:43:34;;;;;;;0.93;0.50;;;;;;;23.40;50.42;99021.84;5095641;28;20032;-83
2023/07/31 02:45:59;;;;;;;1.63;0.82;;;;;;;23.84;50.72;99113.56;5095400;28;20031;-81
2023/07/31 02:48:25;;;;;;;1.67;1.33;;;;;;;23.37;51.53;99087.56;5095393;28;20036;-81
2023/07/31 02:50:50;;;;;;;0.63;0.55;;;;;;;23.37;52.11;99105.53;5096852;28;20031;-81
2023/07/31 02:53:16;;;;;;;1.30;0.98;;;;;;;23.57;51.40;99099.47;5097878;28;20130;-80
2023/07/31 02:55:41;;;;;;;0.32;0.20;;;;;;;23.49;51.07;99044.50;5095722;28;20035;-81
2023/07/31 02:58:07;;;;;;;1.27;0.98;;;;;;;23.83;50.96;99088.44;5095910;28;20486;-79
2023/07/31 03:00:32;;;;;;;1.40;1.05;;;;;;;23.66;50.22;99038.63;5093272;28;20100;-81
2023/07/31 03:02:58;;;;;;;1.38;0.80;;;;;;;23.87;49.90;99056.78;5094127;28;20027;-82
2023/07/31 03:05:23;;;;;;;2.88;1.70;;;;;;;24.15;49.12;99074.25;5094402;28;20054;-81
2023/07/31 03:07:50;;;;;;;1.05;0.75;;;;;;;24.25;49.28;99088.72;5096142;28;20361;-82
2023/07/31 03:10:16;;;;;;;0.40;0.30;;;;;;;24.17;49.43;99080.38;5096002;28;20454;-82
2023/07/31 03:12:41;;;;;;;2.08;1.45;;;;;;;24.13;49.95;99081.63;5093414;28;20074;-81
2023/07/31 03:15:08;;;;;;;1.10;0.52;;;;;;;24.03;49.55;99061.78;5092210;28;20648;-84
2023/07/31 03:17:33;;;;;;;0.95;0.73;;;;;;;24.20;49.34;99092.75;5128938;27;20063;-84
2023/07/31 03:20:00;;;;;;;0.93;0.60;;;;;;;24.19;49.74;99070.34;5096259;28;20063;-82
2023/07/31 03:22:25;;;;;;;3.78;1.60;;;;;;;24.11;50.53;99078.19;5092155;28;20456;-81
2023/07/31 03:24:50;;;;;;;0.68;0.45;;;;;;;24.00;50.28;99044.03;5094239;28;20054;-81
2023/07/31 03:27:16;;;;;;;0.80;0.63;;;;;;;23.87;51.27;99054.94;5093689;28;20503;-82
2023/07/31 03:29:41;;;;;;;1.05;0.85;;;;;;;23.86;51.13;99050.53;5093170;28;20484;-82
2023/07/31 03:32:07;;;;;;;4.40;1.23;;;;;;;24.15;51.38;99097.66;5094176;28;20486;-84
2023/07/31 03:34:32;;;;;;;0.50;0.50;;;;;;;23.87;51.85;99075.66;5093580;28;20089;-82
2023/07/31 03:36:58;;;;;;;5.28;1.52;;;;;;;23.87;52.13;99075.66;5096489;28;20024;-79
2023/07/31 03:39:24;;;;;;;0.98;0.50;;;;;;;23.66;52.36;99083.56;5095162;28;20039;-83
2023/07/31 03:41:49;;;;;;;0.60;0.60;;;;;;;23.82;52.81;99116.38;5093154;28;20039;-84
2023/07/31 03:44:15;;;;;;;0.30;0.30;;;;;;;23.67;52.67;99080.75;5093284;28;20024;-85
2023/07/31 03:46:40;;;;;;;13.05;2.17;;;;;;;23.87;52.79;99110.66;5098078;28;20031;-84
2023/07/31 03:49:06;;;;;;;1.73;1.00;;;;;;;23.87;52.88;99095.34;5095459;28;20031;-84
2023/07/31 03:51:31;;;;;;;0.73;0.73;;;;;;;23.98;52.41;99094.47;5093505;28;20058;-82
2023/07/31 03:53:57;;;;;;;1.33;1.13;;;;;;;24.29;52.38;99127.03;5097192;28;20059;-83
2023/07/31 03:56:22;;;;;;;1.20;0.75;;;;;;;24.23;52.81;99108.66;5095003;28;20035;-84
2023/07/31 03:58:48;;;;;;;1.20;0.57;;;;;;;24.22;54.45;99128.50;5092893;28;20024;-82
2023/07/31 04:01:13;;;;;;;3.00;1.65;;;;;;;23.74;64.59;99151.09;5095920;28;20027;-83
2023/07/31 04:03:39;;;;;;;1.77;1.25;;;;;;;23.30;70.58;99155.41;5095335;28;20032;-81
2023/07/31 04:06:04;;;;;;;12.45;3.15;;;;;;;22.89;75.13;99126.13;5093145;28;20024;-87
2023/07/31 04:08:30;;;;;;;2.53;1.35;;;;;;;22.72;79.33;99137.28;5125866;27;20039;-83
2023/07/31 04:10:55;;;;;;;2.13;1.75;;;;;;;22.13;83.58;99140.63;5096880;28;20062;-84
2023/07/31 04:13:22;;;;;;;2.42;1.80;;;;;;;21.63;87.35;99130.69;5095481;28;20035;-84
2023/07/31 04:15:50;;;;;;;3.00;2.00;;;;;;;21.41;91.67;99144.72;5094253;28;20047;-83
2023/07/31 04:18:15;;;;;;;1.52;1.25;;;;;;;21.52;90.64;99145.81;5093510;28;20410;-85
2023/07/31 04:20:41;;;;;;;7.78;2.88;;;;;;;21.07;92.07;99122.00;5096290;28;20023;-83
2023/07/31 04:23:06;;;;;;;2.55;1.45;;;;;;;21.26;92.80;99151.97;5093618;28;20036;-85
2023/07/31 04:25:32;;;;;;;2.20;1.63;;;;;;;21.45;90.41;99166.81;5089808;28;20031;-87
2023/07/31 04:27:57;;;;;;;2.60;1.30;;;;;;;21.31;91.10;99156.16;5093975;28;20050;-86
2023/07/31 04:30:24;;;;;;;2.33;1.50;;;;;;;21.19;91.34;99139.94;5090881;28;20032;-85
2023/07/31 04:32:49;;;;;;;3.22;1.25;;;;;;;21.51;91.38;99150.31;5095598;28;20083;-88
2023/07/31 04:35:14;;;;;;;2.25;1.67;;;;;;;21.74;90.61;99166.66;5094420;28;20028;-87
2023/07/31 04:37:41;;;;;;;1.67;1.02;;;;;;;21.48;91.21;99125.50;5095211;28;20110;-86
2023/07/31 04:40:08;;;;;;;5.95;1.50;;;;;;;21.96;90.34;99152.59;5095093;28;20065;-86
2023/07/31 04:42:34;;;;;;;1.77;1.48;;;;;;;22.33;88.16;99177.69;5091537;28;20028;-87
2023/07/31 04:44:59;;;;;;;2.70;2.30;;;;;;;21.99;89.09;99165.78;5093752;28;20036;-87
2023/07/31 04:47:25;;;;;;;2.00;1.38;;;;;;;22.38;88.57;99176.50;5092975;28;20055;-85
2023/07/31 04:49:50;;;;;;;2.63;1.10;;;;;;;22.28;88.25;99185.19;5094751;28;20043;-85
2023/07/31 04:52:16;;;;;;;1.77;0.95;;;;;;;21.85;89.60;99144.44;5092037;28;20085;-85
2023/07/31 04:54:41;;;;;;;2.83;1.38;;;;;;;21.90;90.66;99163.75;5092318;27;20035;-84
2023/07/31 04:57:08;;;;;;;2.55;1.80;;;;;;;22.15;90.69;99174.50;5093336;28;20063;-86
2023/07/31 04:59:33;;;;;;;2.85;1.95;;;;;;;21.88;90.31;99136.16;5095417;28;20043;-82
2023/07/31 05:01:59;;;;;;;9.50;1.45;;;;;;;22.07;90.04;99166.09;5096327;28;21126;-82
2023/07/31 05:04:24;;;;;;;1.48;1.20;;;;;;;21.95;90.59;99175.91;5094715;28;20067;-85
2023/07/31 05:06:50;;;;;;;2.38;1.67;;;;;;;22.22;90.86;99190.16;5094418;28;20051;-83
2023/07/31 05:09:15;;;;;;;1.90;1.67;;;;;;;22.34;90.30;99184.78;5093917;28;20039;-86
2023/07/31 05:11:42;;;;;;;5.85;1.67;;;;;;;22.46;89.28;99185.75;5095316;28;20117;-83
2023/07/31 05:14:08;;;;;;;2.85;1.35;;;;;;;22.54;88.09;99169.06;5094468;28;20092;-84
2023/07/31 05:16:34;;;;;;;2.55;1.65;;;;;;;22.88;87.59;99188.94;5093591;28;20032;-83
2023/07/31 05:18:59;;;;;;;3.72;1.58;;;;;;;22.95;86.73;99185.78;5094468;28;20136;-88
2023/07/31 05:21:25;;;;;;;2.15;1.13;;;;;;;22.94;86.13;99187.63;5094516;28;20035;-84
2023/07/31 05:23:50;;;;;;;7.75;1.60;;;;;;;23.30;84.70;99193.94;5095091;28;20027;-84
2023/07/31 05:26:16;;;;;;;2.47;1.58;;;;;;;23.26;83.36;99179.00;5092362;28;20031;-85
2023/07/31 05:28:41;;;;;;;3.22;1.70;;;;;;;23.52;82.51;99184.22;5091576;28;20031;-84
2023/07/31 05:31:07;;;;;;;2.78;1.73;;;;;;;23.63;82.75;99199.56;5094079;28;20021;-85
2023/07/31 05:33:32;;;;;;;2.13;1.90;;;;;;;23.67;81.99;99172.28;5096427;28;20032;-85
2023/07/31 05:35:58;;;;;;;6.90;2.15;;;;;;;23.93;81.82;99197.19;5095040;28;20059;-86
2023/07/31 05:38:23;;;;;;;2.17;1.30;;;;;;;23.92;82.31;99203.56;5097072;28;20032;-82
2023/07/31 05:40:49;;;;;;;2.28;1.25;;;;;;;24.04;80.53;99182.03;5098141;27;20675;-84
2023/07/31 05:43:15;;;;;;;2.92;1.27;;;;;;;23.84;81.17;99179.06;5096882;28;20040;-85
2023/07/31 05:45:41;;;;;;;3.22;2.17;;;;;;;23.90;80.29;99208.22;5107275;27;20036;-84
2023/07/31 05:48:07;;;;;;;2.47;1.20;;;;;;;23.94;81.22;99185.47;5101457;28;20507;-84
2023/07/31 05:50:32;;;;;;;5.00;2.03;;;;;;;23.85;80.86;99185.31;5100472;28;20024;-92
2023/07/31 05:52:58;;;;;;;2.78;1.65;;;;;;;23.98;80.93;99196.00;5109237;28;20411;-89
2023/07/31 05:55:28;;;;;;;2.28;1.58;;;;;;;24.07;80.74;99222.19;5100112;27;20171;-88
2023/07/31 05:57:54;;;;;;;3.65;1.67;;;;;;;23.74;83.16;99192.38;5102354;28;20034;-87
2023/07/31 06:00:20;;;;;;;1.02;0.88;;;;;;;24.20;81.01;99187.91;5105927;28;20035;-82
2023/07/31 06:02:47;;;;;;;4.32;1.88;;;;;;;24.46;80.12;99218.16;5110877;28;20054;-84
2023/07/31 06:05:13;;;;;;;4.00;2.17;;;;;;;24.67;80.63;99202.13;5106729;28;20020;-83
2023/07/31 06:07:38;;;;;;;1.73;1.40;;;;;;;24.87;78.10;99212.25;5112662;28;20097;-84
2023/07/31 06:10:05;;;;;;;6.72;2.67;;;;;;;25.20;78.21;99206.75;5113284;28;20043;-79
2023/07/31 06:12:34;;;;;;;6.72;3.90;;;;;;;25.11;75.09;99212.91;5112150;28;20028;-81
2023/07/31 06:15:00;;;;;;;4.85;2.75;;;;;;;25.18;73.87;99197.94;5111634;28;20070;-82
2023/07/31 06:17:26;;;;;;;5.05;2.40;;;;;;;25.34;74.77;99181.34;5113387;28;20074;-81
2023/07/31 06:19:51;;;;;;;3.08;1.77;;;;;;;25.91;74.96;99187.25;5098657;28;20347;-81
2023/07/31 06:22:17;;;;;;;3.22;2.25;;;;;;;26.38;73.19;99178.69;5095426;28;20048;-84
2023/07/31 06:24:42;;;;;;;2.53;1.40;;;;;;;26.63;70.66;99193.59;5096513;28;20028;-82
2023/07/31 06:27:08;;;;;;;4.20;2.10;;;;;;;26.43;66.43;99197.19;5098544;28;20512;-84
2023/07/31 06:29:34;;;;;;;3.00;1.60;;;;;;;26.36;67.44;99196.06;5095878;28;20040;-83
2023/07/31 06:32:00;;;;;;;1.92;1.48;;;;;;;26.37;66.43;99193.22;5096330;28;20043;-83
2023/07/31 06:34:25;;;;;;;5.00;2.67;;;;;;;26.54;65.18;99209.75;5098035;28;20028;-82
2023/07/31 06:36:51;;;;;;;2.83;2.20;;;;;;;26.35;63.74;99145.66;5092340;28;20085;-83
2023/07/31 06:39:16;;;;;;;4.57;2.50;;;;;;;26.45;64.61;99195.25;5095780;28;20028;-84
2023/07/31 06:41:42;;;;;;;3.78;2.22;;;;;;;26.49;65.19;99172.31;5096540;28;20126;-84
2023/07/31 06:44:08;;;;;;;4.03;2.47;;;;;;;26.68;62.40;99203.16;5100621;28;20054;-84
2023/07/31 06:46:34;;;;;;;4.50;2.40;;;;;;;26.53;64.68;99183.75;5093841;28;20582;-86
2023/07/31 06:48:59;;;;;;;2.95;2.20;;;;;;;26.49;63.68;99183.13;5099809;28;20524;-83
2023/07/31 06:51:25;;;;;;;2.20;1.40;;;;;;;26.32;64.65;99183.78;5102622;28;20028;-84
2023/07/31 06:53:50;;;;;;;4.38;2.88;;;;;;;26.45;63.90;99196.09;5096204;28;20536;-86
2023/07/31 06:56:15;;;;;;;6.43;3.53;;;;;;;26.33;62.83;99172.84;5098829;28;20501;-84
2023/07/31 06:58:41;;;;;;;3.97;2.72;;;;;;;26.32;62.11;99181.97;5097012;28;20176;-83
2023/07/31 07:01:06;;;;;;;3.83;2.53;;;;;;;26.31;61.94;99191.06;5095884;28;20421;-86
2023/07/31 07:03:32;;;;;;;2.92;2.08;;;;;;;26.08;62.55;99155.25;5095711;28;20031;-83
2023/07/31 07:05:58;;;;;;;4.05;2.97;;;;;;;26.56;61.02;99183.47;5097902;28;20122;-83
2023/07/31 07:08:24;;;;;;;3.08;2.13;;;;;;;26.81;61.58;99176.72;5096239;28;20046;-83
2023/07/31 07:10:49;;;;;;;2.40;1.42;;;;;;;27.43;59.59;99179.19;5095965;28;20027;-85
2023/07/31 07:13:15;;;;;;;3.70;2.85;;;;;;;27.96;57.87;99191.38;5094567;28;20114;-85
2023/07/31 07:15:40;;;;;;;3.58;1.80;;;;;;;28.09;57.33;99180.25;5098946;28;20070;-83
2023/07/31 07:18:06;;;;;;;3.30;1.88;;;;;;;28.47;56.12;99186.50;5098348;28;20059;-83
2023/07/31 07:20:31;;;;;;;3.53;2.65;;;;;;;28.48;57.24;99177.34;5095794;28;20036;-85
2023/07/31 07:22:57;;;;;;;4.55;2.95;;;;;;;28.56;54.41;99172.03;5097860;28;20482;-86
2023/07/31 07:25:22;;;;;;;2.58;1.80;;;;;;;28.55;54.13;99183.91;5098293;28;20023;-80
2023/07/31 07:27:48;;;;;;;3.22;2.15;;;;;;;28.58;53.22;99167.31;5096319;28;20500;-81
2023/07/31 07:30:14;;;;;;;4.65;2.65;;;;;;;29.05;52.61;99190.75;5093512;28;21758;-84
2023/07/31 07:32:39;;;;;;;3.60;2.08;;;;;;;28.81;54.20;99170.50;5095707;28;20557;-82
2023/07/31 07:35:06;;;;;;;4.20;2.95;;;;;;;28.84;51.94;99174.75;5098267;28;20040;-82
2023/07/31 07:37:31;;;;;;;2.42;1.95;;;;;;;29.45;53.01;99160.44;5092876;28;20039;-85
2023/07/31 07:39:57;;;;;;;4.15;2.70;;;;;;;29.62;53.73;99168.72;5096463;28;20055;-83
2023/07/31 07:42:22;;;;;;;3.08;1.95;;;;;;;29.75;52.48;99185.47;5094580;28;20370;-82
2023/07/31 07:44:48;;;;;;;2.95;1.98;;;;;;;29.73;51.31;99192.06;5096604;28;20130;-82
2023/07/31 07:47:13;;;;;;;6.60;4.07;;;;;;;30.24;51.92;99182.22;5093468;28;20067;-83
2023/07/31 07:49:39;;;;;;;6.03;3.50;;;;;;;29.99;52.05;99163.03;5094723;28;20541;-85
2023/07/31 07:52:05;;;;;;;4.57;2.53;;;;;;;29.62;50.58;99171.44;5097174;28;20438;-84
2023/07/31 07:54:30;;;;;;;6.30;3.80;;;;;;;29.37;52.32;99179.38;5093899;28;20062;-82
2023/07/31 07:56:56;;;;;;;3.63;2.60;;;;;;;29.55;52.93;99157.63;5096264;28;20397;-85
2023/07/31 07:59:21;;;;;;;6.45;3.55;;;;;;;29.77;52.91;99183.44;5092883;28;20039;-83
2023/07/31 08:01:47;;;;;;;3.67;2.75;;;;;;;30.08;50.04;99172.09;5096930;28;20055;-83
2023/07/31 08:04:12;;;;;;;7.18;3.25;;;;;;;30.29;50.67;99143.63;5094179;28;20035;-83
2023/07/31 08:06:38;;;;;;;6.80;4.32;;;;;;;30.22;49.35;99181.53;5095295;28;20036;-88
2023/07/31 08:09:06;;;;;;;5.60;2.85;;;;;;;30.23;49.90;99175.09;5092114;28;20182;-82
2023/07/31 08:11:32;;;;;;;3.63;3.05;;;;;;;30.30;51.02;99178.00;5094333;28;20492;-82
2023/07/31 08:13:57;;;;;;;6.35;3.63;;;;;;;29.98;49.83;99155.03;5093104;28;20024;-85
2023/07/31 08:16:23;;;;;;;6.18;3.42;;;;;;;30.21;50.69;99158.06;5094462;28;20046;-82
2023/07/31 08:18:48;;;;;;;4.55;2.88;;;;;;;30.36;48.29;99180.91;5095913;28;20038;-82
2023/07/31 08:21:14;;;;;;;7.15;3.70;;;;;;;30.51;49.84;99167.59;5092150;28;20031;-85
2023/07/31 08:23:40;;;;;;;4.97;4.10;;;;;;;30.46;47.44;99160.91;5095889;28;20091;-84
2023/07/31 08:26:06;;;;;;;11.18;3.35;;;;;;;30.37;47.91;99154.56;5095001;28;20480;-82
2023/07/31 08:28:31;;;;;;;5.57;2.55;;;;;;;30.84;49.52;99153.22;5092370;28;20027;-83
2023/07/31 08:30:57;;;;;;;3.40;2.58;;;;;;;30.98;47.69;99141.69;5096594;28;20501;-81
2023/07/31 08:33:22;;;;;;;4.95;2.67;;;;;;;31.11;46.61;99143.94;5094759;28;20497;-82
2023/07/31 08:35:48;;;;;;;5.30;3.13;;;;;;;31.39;45.44;99128.09;5095401;28;20417;-84
2023/07/31 08:38:13;;;;;;;4.28;3.10;;;;;;;31.59;44.83;99153.16;5095635;28;20406;-81
2023/07/31 08:40:39;;;;;;;8.55;2.83;;;;;;;31.34;43.26;99138.69;5098057;28;20036;-84
2023/07/31 08:43:05;;;;;;;4.00;3.20;;;;;;;31.81;44.21;99141.69;5093677;28;20024;-84
2023/07/31 08:45:32;;;;;;;7.97;3.53;;;;;;;31.98;44.84;99150.69;5093421;28;20024;-83
2023/07/31 08:47:58;;;;;;;3.58;2.70;;;;;;;32.29;44.20;99159.00;5092267;28;20023;-82
2023/07/31 08:50:24;;;;;;;5.90;3.13;;;;;;;32.49;41.25;99159.44;5092141;28;20478;-83
2023/07/31 08:52:51;;;;;;;8.05;2.65;;;;;;;31.66;44.26;99168.81;5093925;28;20059;-81
2023/07/31 08:55:17;;;;;;;6.25;4.45;;;;;;;31.35;46.04;99143.09;5094314;28;20063;-81
2023/07/31 08:57:44;;;;;;;5.63;3.67;;;;;;;31.95;44.72;99135.53;5094549;28;20036;-81
2023/07/31 09:00:10;;;;;;;6.50;4.20;;;;;;;31.95;44.45;99141.84;5096349;28;20024;-81
2023/07/31 09:02:45;;;;;;;4.97;3.53;;;;;;;31.59;44.99;99177.69;5099270;28;20051;-81
2023/07/31 09:05:11;;;;;;;8.10;3.53;;;;;;;31.27;43.98;99164.88;5091083;28;20035;-82
2023/07/31 09:07:37;;;;;;;6.18;3.80;;;;;;;31.05;45.44;99172.69;5093318;28;20647;-81
2023/07/31 09:10:04;;;;;;;3.55;2.35;;;;;;;31.21;45.31;99165.56;5094753;28;20039;-82
2023/07/31 09:12:30;;;;;;;3.40;2.10;;;;;;;31.51;44.73;99171.34;5094707;28;20043;-80
2023/07/31 09:14:57;;;;;;;7.68;3.45;;;;;;;31.33;46.18;99138.84;5098347;28;20083;-83
2023/07/31 09:17:33;;;;;;;5.35;2.95;;;;;;;32.10;43.79;99152.91;5095282;28;20545;-82
2023/07/31 09:20:20;;;;;;;7.88;3.20;;;;;;;32.19;41.58;99156.44;5097549;28;20032;-82
2023/07/31 09:22:48;;;;;;;4.68;2.88;;;;;;;31.89;40.28;99128.06;5096676;28;20043;-80
2023/07/31 09:25:18;;;;;;;3.38;2.35;;;;;;;32.37;42.14;99166.31;5093892;28;20035;-82
2023/07/31 09:28:03;;;;;;;4.57;2.30;;;;;;;33.08;38.67;99152.63;5097655;28;20026;-82
2023/07/31 09:30:28;;;;;;;4.50;2.70;;;;;;;33.02;40.97;99141.38;5098861;28;20032;-83
2023/07/31 09:33:14;;;;;;;3.30;2.67;;;;;;;33.36;38.16;99151.06;5099181;28;20315;-80
2023/07/31 09:35:42;;;;;;;6.07;2.90;;;;;;;33.48;37.28;99104.16;5094999;28;20038;-84
2023/07/31 09:38:13;;;;;;;5.53;2.53;;;;;;;33.81;37.41;99120.25;5098713;28;20063;-83
2023/07/31 09:40:42;;;;;;;4.00;2.70;;;;;;;34.18;36.04;99132.16;5097752;28;20066;-81
2023/07/31 09:43:10;;;;;;;5.20;2.85;;;;;;;33.06;36.37;99109.09;5096418;28;21920;-83
2023/07/31 09:45:37;;;;;;;6.55;3.63;;;;;;;32.75;37.20;99125.53;5099505;28;20046;-83
2023/07/31 09:48:03;;;;;;;5.18;3.03;;;;;;;32.99;37.33;99108.13;5094695;27;20100;-88
2023/07/31 09:50:29;;;;;;;9.32;3.40;;;;;;;33.04;35.85;99116.63;5098652;28;20058;-82
2023/07/31 09:52:55;;;;;;;8.30;3.88;;;;;;;33.49;39.19;99130.44;5097513;28;20469;-84
2023/07/31 09:55:20;;;;;;;4.95;3.38;;;;;;;33.69;36.92;99134.38;5098728;27;20039;-84
2023/07/31 09:57:49;;;;;;;3.42;2.30;;;;;;;33.69;37.39;99101.56;5095457;28;20035;-82
2023/07/31 10:00:17;;;;;;;3.08;1.90;;;;;;;34.08;34.42;99127.81;5097892;28;20457;-83
2023/07/31 10:02:46;;;;;;;3.67;2.15;;;;;;;33.67;35.02;99103.63;5097948;28;20084;-86
2023/07/31 10:05:15;;;;;;;3.90;1.98;;;;;;;33.89;33.61;99121.03;5093744;28;20243;-81
2023/07/31 10:07:43;;;;;;;2.90;2.10;;;;;;;33.80;37.30;99096.69;5097493;28;20036;-85
2023/07/31 10:10:09;;;;;;;6.10;3.13;;;;;;;33.77;35.05;99094.31;5095099;28;20042;-83
2023/07/31 10:12:36;;;;;;;6.55;3.17;;;;;;;33.73;35.07;99111.09;5095740;28;20027;-86
2023/07/31 10:15:02;;;;;;;6.57;3.72;;;;;;;33.62;35.54;99100.59;5100283;28;20063;-86
2023/07/31 10:17:32;;;;;;;4.03;2.75;;;;;;;34.14;34.26;99095.25;5097866;28;20047;-87
2023/07/31 10:20:04;;;;;;;4.10;2.45;;;;;;;34.46;34.91;99098.66;5097761;28;20028;-88
2023/07/31 10:22:31;;;;;;;2.85;2.05;;;;;;;34.33;33.74;99102.91;5096386;28;20039;-82
2023/07/31 10:24:59;;;;;;;5.90;3.85;;;;;;;34.12;34.56;99100.91;5097668;28;20114;-83
2023/07/31 10:27:25;;;;;;;4.45;3.08;;;;;;;33.55;34.90;99097.78;5095101;28;20043;-83
2023/07/31 10:29:53;;;;;;;4.43;2.72;;;;;;;33.69;37.25;99071.47;5094462;28;20453;-84
2023/07/31 10:32:19;;;;;;;4.43;2.90;;;;;;;34.12;37.08;99078.19;5096270;28;20478;-83
2023/07/31 10:34:46;;;;;;;5.07;2.58;;;;;;;33.91;36.02;99085.28;5098407;28;20039;-84
2023/07/31 10:37:23;;;;;;;4.57;3.10;;;;;;;34.22;36.03;99087.81;5094885;28;20035;-81
2023/07/31 10:40:08;;;;;;;3.78;2.58;;;;;;;33.84;35.04;99078.88;5094179;27;20035;-83
2023/07/31 10:42:35;;;;;;;3.45;2.95;;;;;;;33.47;36.02;99054.09;5099148;27;20487;-80
2023/07/31 10:45:04;;;;;;;2.20;1.75;;;;;;;33.71;36.96;99076.75;5096043;28;20523;-82
2023/07/31 10:47:30;;;;;;;3.72;2.33;;;;;;;33.70;36.84;99044.97;5094935;28;20036;-86
2023/07/31 10:50:21;;;;;;;8.43;4.35;;;;;;;34.04;35.99;99063.56;5095542;28;20039;-81
2023/07/31 10:53:03;;;;;;;6.55;3.17;;;;;;;34.15;35.95;99034.88;5093087;28;20056;-83
2023/07/31 10:55:42;;;;;;;3.58;2.38;;;;;;;34.19;34.45;99047.13;5094013;28;20919;-80
2023/07/31 10:58:12;;;;;;;4.60;2.47;;;;;;;34.22;35.23;99054.97;5097474;28;20074;-83
2023/07/31 11:00:40;;;;;;;5.95;2.85;;;;;;;34.17;34.28;99043.75;5097018;28;20092;-83
2023/07/31 11:03:17;;;;;;;7.07;3.38;;;;;;;34.63;35.05;99044.50;5095904;28;20054;-81
2023/07/31 11:05:48;;;;;;;5.93;3.17;;;;;;;34.89;36.53;99046.69;5094930;28;20036;-80
2023/07/31 11:08:19;;;;;;;6.57;2.63;;;;;;;35.48;34.16;99051.84;5097237;28;20509;-85
2023/07/31 11:10:46;;;;;;;2.72;2.25;;;;;;;35.62;32.98;99035.47;5097843;28;20031;-84
2023/07/31 11:13:12;;;;;;;6.10;2.85;;;;;;;35.45;34.45;99030.31;5094160;28;20182;-81
2023/07/31 11:15:38;;;;;;;4.93;3.08;;;;;;;34.96;33.65;99040.22;5096904;28;20064;-81
2023/07/31 11:18:05;;;;;;;5.30;3.05;;;;;;;34.44;33.96;99023.03;5099833;28;20031;-82
2023/07/31 11:20:32;;;;;;;4.50;2.90;;;;;;;33.87;34.73;99021.06;5098212;28;20031;-84
2023/07/31 11:23:08;;;;;;;3.83;2.08;;;;;;;33.26;34.47;98992.00;5097445;28;20417;-82
2023/07/31 11:25:34;;;;;;;3.95;2.75;;;;;;;33.18;35.39;99014.78;5096265;28;20036;-82
2023/07/31 11:28:07;;;;;;;4.13;2.70;;;;;;;33.27;35.52;99026.47;5096453;28;20050;-85
2023/07/31 11:30:33;;;;;;;4.97;2.55;;;;;;;33.39;35.92;99010.47;5096496;28;20064;-83
2023/07/31 11:33:01;;;;;;;5.88;2.92;;;;;;;33.26;35.57;99013.84;5099686;28;20027;-84